createdAt,value
2018-11-27T00:01:47.086Z,73.60
2018-11-27T00:04:14.635Z,73.30
2018-11-27T00:06:42.195Z,73.30
2018-11-27T00:09:09.804Z,73.50
2018-11-27T00:11:37.401Z,73.70
2018-11-27T00:14:05.131Z,73.60
2018-11-27T00:16:32.727Z,73.50
2018-11-27T00:19:00.291Z,73.80
2018-11-27T00:21:27.846Z,73.70
2018-11-27T00:23:55.433Z,73.70
2018-11-27T00:26:23.003Z,73.60
2018-11-27T00:28:50.591Z,73.60
2018-11-27T00:31:18.183Z,73.60
2018-11-27T00:33:45.731Z,73.60
2018-11-27T00:36:13.275Z,73.70
2018-11-27T00:38:40.847Z,73.60
2018-11-27T00:41:08.432Z,73.80
2018-11-27T00:43:36.029Z,73.70
2018-11-27T00:46:03.613Z,73.60
2018-11-27T00:48:31.162Z,73.80
2018-11-27T00:50:58.739Z,73.90
2018-11-27T00:53:26.331Z,73.70
2018-11-27T00:55:54.471Z,73.80
2018-11-27T01:00:56.279Z,73.60
2018-11-27T01:03:23.812Z,73.60
2018-11-27T01:05:51.367Z,73.80
2018-11-27T01:08:18.904Z,73.50
2018-11-27T01:10:46.467Z,73.70
2018-11-27T01:13:14.048Z,73.70
2018-11-27T01:15:41.615Z,73.90
2018-11-27T01:18:09.229Z,74.10
2018-11-27T01:20:36.796Z,74.00
2018-11-27T01:23:05.413Z,74.00
2018-11-27T01:25:32.995Z,74.00
2018-11-27T01:28:00.561Z,74.00
2018-11-27T01:30:28.153Z,73.90
2018-11-27T01:32:55.729Z,74.00
2018-11-27T01:35:23.899Z,73.80
2018-11-27T01:37:52.558Z,73.90
2018-11-27T01:40:22.053Z,73.70
2018-11-27T01:42:50.679Z,73.70
2018-11-27T01:45:19.250Z,73.60
2018-11-27T01:47:46.985Z,73.70
2018-11-27T01:50:15.420Z,73.80
2018-11-27T01:52:43.023Z,73.90
2018-11-27T01:55:15.221Z,73.90
2018-11-27T01:57:42.932Z,73.70
2018-11-27T02:00:15.484Z,73.70
2018-11-27T02:02:43.090Z,73.90
2018-11-27T02:05:10.778Z,74.00
2018-11-27T02:07:38.344Z,74.00
2018-11-27T02:10:08.790Z,73.90
2018-11-27T02:12:36.551Z,73.90
2018-11-27T02:15:06.266Z,73.90
2018-11-27T02:17:33.822Z,74.10
2018-11-27T02:20:01.417Z,74.00
2018-11-27T02:22:28.980Z,73.90
2018-11-27T02:24:56.605Z,74.20
2018-11-27T02:27:24.198Z,74.10
2018-11-27T02:29:51.756Z,74.00
2018-11-27T02:32:19.316Z,74.00
2018-11-27T02:34:46.938Z,73.80
2018-11-27T02:37:14.546Z,73.60
2018-11-27T02:39:42.126Z,73.60
2018-11-27T02:42:09.745Z,73.50
2018-11-27T02:44:37.344Z,73.60
2018-11-27T02:47:05.016Z,73.70
2018-11-27T02:49:32.606Z,73.60
2018-11-27T02:52:00.243Z,73.60
2018-11-27T02:54:27.816Z,73.10
2018-11-27T02:56:55.330Z,73.30
2018-11-27T02:59:22.932Z,73.20
2018-11-27T03:01:50.525Z,72.80
2018-11-27T03:04:18.160Z,72.90
2018-11-27T03:06:45.791Z,72.90
2018-11-27T03:09:13.376Z,72.90
2018-11-27T03:11:41.007Z,72.90
2018-11-27T03:14:08.601Z,72.90
2018-11-27T03:16:36.222Z,72.80
2018-11-27T03:19:03.873Z,72.90
2018-11-27T03:21:31.472Z,72.90
2018-11-27T03:23:59.078Z,72.80
2018-11-27T03:26:26.682Z,72.90
2018-11-27T03:28:54.263Z,72.90
2018-11-27T03:31:21.847Z,73.20
2018-11-27T03:33:49.417Z,73.30
2018-11-27T03:36:17.021Z,73.30
2018-11-27T03:38:44.620Z,73.00
2018-11-27T03:41:12.225Z,73.20
2018-11-27T03:43:39.876Z,72.90
2018-11-27T03:46:07.532Z,73.40
2018-11-27T03:48:35.122Z,73.40
2018-11-27T03:51:02.713Z,73.20
2018-11-27T03:53:30.275Z,72.80
2018-11-27T03:55:57.921Z,73.20
2018-11-27T03:58:25.536Z,73.30
2018-11-27T04:00:53.133Z,73.30
2018-11-27T04:03:20.756Z,73.20
2018-11-27T04:05:48.318Z,73.30
2018-11-27T04:08:15.954Z,73.30
2018-11-27T04:10:43.538Z,73.30
2018-11-27T04:13:11.174Z,73.20
2018-11-27T04:15:38.751Z,73.40
2018-11-27T04:18:06.402Z,73.10
2018-11-27T04:20:34.013Z,73.00
2018-11-27T04:23:01.641Z,72.90
2018-11-27T04:25:35.927Z,72.90
2018-11-27T04:28:03.571Z,73.00
2018-11-27T04:30:31.142Z,72.50
2018-11-27T04:32:58.773Z,72.60
2018-11-27T04:35:26.356Z,72.70
2018-11-27T04:37:53.927Z,72.50
2018-11-27T04:40:21.859Z,72.20
2018-11-27T04:42:49.525Z,72.30
2018-11-27T04:45:20.301Z,72.30
2018-11-27T04:47:47.942Z,71.80
2018-11-27T04:50:16.402Z,71.70
2018-11-27T04:52:44.094Z,71.60
2018-11-27T04:55:12.780Z,71.90
2018-11-27T04:57:40.398Z,72.10
2018-11-27T05:00:14.318Z,71.80
2018-11-27T05:02:41.923Z,71.70
2018-11-27T05:05:09.899Z,71.80
2018-11-27T05:07:37.561Z,71.70
2018-11-27T05:10:09.621Z,72.10
2018-11-27T05:12:37.249Z,71.90
2018-11-27T05:15:06.056Z,72.00
2018-11-27T05:17:33.673Z,71.80
2018-11-27T05:20:01.252Z,71.70
2018-11-27T05:22:28.783Z,71.90
2018-11-27T05:24:56.452Z,72.10
2018-11-27T05:27:24.052Z,72.10
2018-11-27T05:29:51.671Z,71.70
2018-11-27T05:32:19.306Z,71.80
2018-11-27T05:34:46.945Z,71.60
2018-11-27T05:37:14.560Z,71.50
2018-11-27T05:39:42.187Z,71.60
2018-11-27T05:42:09.786Z,71.90
2018-11-27T05:44:37.388Z,72.10
2018-11-27T05:47:05.312Z,72.30
2018-11-27T05:49:32.893Z,72.40
2018-11-27T05:52:00.452Z,72.70
2018-11-27T05:54:28.117Z,72.50
2018-11-27T05:56:55.752Z,72.70
2018-11-27T05:59:23.340Z,72.80
2018-11-27T06:01:50.987Z,72.60
2018-11-27T06:04:18.664Z,72.70
2018-11-27T06:06:46.269Z,72.90
2018-11-27T06:09:13.819Z,72.60
2018-11-27T06:11:41.427Z,72.70
2018-11-27T06:14:09.066Z,72.80
2018-11-27T06:16:36.689Z,72.60
2018-11-27T06:19:04.470Z,72.90
2018-11-27T06:21:32.076Z,72.90
2018-11-27T06:23:59.705Z,72.90
2018-11-27T06:26:27.278Z,72.70
2018-11-27T06:28:54.819Z,72.90
2018-11-27T06:31:22.364Z,73.10
2018-11-27T06:33:49.950Z,72.60
2018-11-27T06:36:17.530Z,72.60
2018-11-27T06:38:45.163Z,72.80
2018-11-27T06:41:12.762Z,72.80
2018-11-27T06:43:40.556Z,72.70
2018-11-27T06:46:08.179Z,72.40
2018-11-27T06:48:35.795Z,72.20
2018-11-27T06:51:03.425Z,72.30
2018-11-27T06:53:31.005Z,72.40
2018-11-27T06:55:58.595Z,72.20
2018-11-27T06:58:26.201Z,72.30
2018-11-27T07:00:53.746Z,72.50
2018-11-27T07:03:21.317Z,72.60
2018-11-27T07:05:48.871Z,72.40
2018-11-27T07:08:16.510Z,72.20
2018-11-27T07:10:45.084Z,72.30
2018-11-27T07:13:16.022Z,72.20
2018-11-27T07:15:43.604Z,72.50
2018-11-27T07:18:11.172Z,72.40
2018-11-27T07:20:38.787Z,72.40
2018-11-27T07:23:06.902Z,72.40
2018-11-27T07:25:34.739Z,72.40
2018-11-27T07:28:02.382Z,72.80
2018-11-27T07:30:29.962Z,73.00
2018-11-27T07:32:57.496Z,73.00
2018-11-27T07:35:25.151Z,73.20
2018-11-27T07:37:52.779Z,73.30
2018-11-27T07:40:22.944Z,73.20
2018-11-27T07:42:52.814Z,72.80
2018-11-27T07:45:21.294Z,72.40
2018-11-27T07:47:48.933Z,72.30
2018-11-27T07:50:16.649Z,72.10
2018-11-27T07:52:44.355Z,72.10
2018-11-27T07:55:13.846Z,72.40
2018-11-27T07:57:41.478Z,72.30
2018-11-27T08:00:12.904Z,72.30
2018-11-27T08:02:40.702Z,72.40
2018-11-27T08:05:19.185Z,72.20
2018-11-27T08:07:48.230Z,72.60
2018-11-27T08:10:17.024Z,73.10
2018-11-27T08:12:44.689Z,72.70
2018-11-27T08:15:14.392Z,72.90
2018-11-27T08:17:42.123Z,73.30
2018-11-27T08:20:12.071Z,73.50
2018-11-27T08:22:39.646Z,73.40
2018-11-27T08:25:08.912Z,73.30
2018-11-27T08:27:36.497Z,73.10
2018-11-27T08:30:06.740Z,73.40
2018-11-27T08:32:34.334Z,73.60
2018-11-27T08:35:01.944Z,73.30
2018-11-27T08:37:29.573Z,73.60
2018-11-27T08:39:57.133Z,73.20
2018-11-27T08:42:24.825Z,73.40
2018-11-27T08:44:52.432Z,73.40
2018-11-27T08:47:20.057Z,73.90
2018-11-27T08:49:47.614Z,74.20
2018-11-27T08:52:15.237Z,74.00
2018-11-27T08:54:42.816Z,73.40
2018-11-27T08:57:10.434Z,73.70
2018-11-27T08:59:38.067Z,74.10
2018-11-27T09:02:05.953Z,74.10
2018-11-27T09:04:33.493Z,73.60
2018-11-27T09:07:01.180Z,73.90
2018-11-27T09:09:28.852Z,73.80
2018-11-27T09:11:56.522Z,73.60
2018-11-27T09:14:24.102Z,73.30
2018-11-27T09:16:51.686Z,73.20
2018-11-27T09:19:19.290Z,73.40
2018-11-27T09:21:46.940Z,73.20
2018-11-27T09:24:14.592Z,73.00
2018-11-27T09:26:42.214Z,73.30
2018-11-27T09:29:09.833Z,72.80
2018-11-27T09:31:37.448Z,72.50
2018-11-27T09:34:05.148Z,72.30
2018-11-27T09:36:32.711Z,72.20
2018-11-27T09:39:00.308Z,72.00
2018-11-27T09:41:27.949Z,72.60
2018-11-27T09:43:55.544Z,72.80
2018-11-27T09:46:23.110Z,72.80
2018-11-27T09:48:50.760Z,72.50
2018-11-27T09:51:18.322Z,72.30
2018-11-27T09:53:45.958Z,72.60
2018-11-27T09:56:13.509Z,72.50
2018-11-27T09:58:41.175Z,72.20
2018-11-27T10:01:08.801Z,72.60
2018-11-27T10:03:36.393Z,72.40
2018-11-27T10:06:04.073Z,72.20
2018-11-27T10:08:31.691Z,72.50
2018-11-27T10:10:59.251Z,73.40
2018-11-27T10:13:26.874Z,73.10
2018-11-27T10:16:01.065Z,72.90
2018-11-27T10:18:28.724Z,72.80
2018-11-27T10:20:56.437Z,72.90
2018-11-27T10:23:24.007Z,73.00
2018-11-27T10:25:51.635Z,72.60
2018-11-27T10:28:19.271Z,72.50
2018-11-27T10:30:46.934Z,72.90
2018-11-27T10:33:14.547Z,72.80
2018-11-27T10:35:47.652Z,72.50
2018-11-27T10:38:15.264Z,72.90
2018-11-27T10:40:43.065Z,72.40
2018-11-27T10:43:10.684Z,72.50
2018-11-27T10:45:38.285Z,72.50
2018-11-27T10:48:05.995Z,72.60
2018-11-27T10:50:33.697Z,72.50
2018-11-27T10:53:01.271Z,72.40
2018-11-27T10:55:28.920Z,72.60
2018-11-27T10:57:56.545Z,72.30
2018-11-27T11:00:30.560Z,72.00
2018-11-27T11:04:02.831Z,72.00
2018-11-27T11:06:30.914Z,72.50
2018-11-27T11:08:58.509Z,72.50
2018-11-27T11:11:26.152Z,72.60
2018-11-27T11:13:53.726Z,72.70
2018-11-27T11:16:21.359Z,72.30
2018-11-27T11:18:48.953Z,72.50
2018-11-27T11:21:16.519Z,72.50
2018-11-27T11:23:44.059Z,72.90
2018-11-27T11:26:11.724Z,71.80
2018-11-27T11:28:39.411Z,72.40
2018-11-27T11:31:07.109Z,71.60
2018-11-27T11:33:34.699Z,71.90
2018-11-27T11:36:02.333Z,72.00
2018-11-27T11:38:29.985Z,71.50
2018-11-27T11:40:57.545Z,71.50
2018-11-27T11:43:25.160Z,71.90
2018-11-27T11:45:52.746Z,72.40
2018-11-27T11:48:20.325Z,71.80
2018-11-27T11:50:48.091Z,71.00
2018-11-27T11:53:16.988Z,71.30
2018-11-27T11:55:45.365Z,71.90
2018-11-27T11:58:12.997Z,71.10
2018-11-27T12:00:50.408Z,70.60
2018-11-27T12:03:17.997Z,71.50
2018-11-27T12:05:45.563Z,70.60
2018-11-27T12:08:14.043Z,71.40
2018-11-27T12:10:41.610Z,71.50
2018-11-27T12:13:10.158Z,71.40
2018-11-27T12:15:37.750Z,71.00
2018-11-27T12:18:06.160Z,69.80
2018-11-27T12:20:34.059Z,71.10
2018-11-27T12:23:01.822Z,71.00
2018-11-27T12:25:29.427Z,70.50
2018-11-27T12:27:57.039Z,70.50
2018-11-27T12:30:25.552Z,70.40
2018-11-27T12:32:53.256Z,71.50
2018-11-27T12:35:21.390Z,71.30
2018-11-27T12:37:49.772Z,70.40
2018-11-27T12:40:22.254Z,70.40
2018-11-27T12:42:50.171Z,70.80
2018-11-27T12:45:19.914Z,71.10
2018-11-27T12:47:47.534Z,70.50
2018-11-27T12:50:16.498Z,70.60
2018-11-27T12:52:44.075Z,70.10
2018-11-27T12:55:13.046Z,71.10
2018-11-27T12:57:40.744Z,71.50
2018-11-27T13:00:11.076Z,70.90
2018-11-27T13:02:38.717Z,71.50
2018-11-27T13:05:08.087Z,71.80
2018-11-27T13:07:35.691Z,71.40
2018-11-27T13:10:03.973Z,72.10
2018-11-27T13:12:31.570Z,71.30
2018-11-27T13:14:59.203Z,71.50
2018-11-27T13:17:26.774Z,71.60
2018-11-27T13:19:54.420Z,71.50
2018-11-27T13:22:22.015Z,71.80
2018-11-27T13:24:49.700Z,72.00
2018-11-27T13:27:17.326Z,71.10
2018-11-27T13:29:44.932Z,71.00
2018-11-27T13:32:12.556Z,70.30
2018-11-27T13:34:40.194Z,70.70
2018-11-27T13:37:07.810Z,70.60
2018-11-27T13:39:36.471Z,69.80
2018-11-27T13:42:04.534Z,70.40
2018-11-27T13:44:32.127Z,70.60
2018-11-27T13:46:59.695Z,71.10
2018-11-27T13:49:27.825Z,71.40
2018-11-27T13:51:54.982Z,71.40
2018-11-27T13:54:22.680Z,70.60
2018-11-27T13:56:50.337Z,70.40
2018-11-27T13:59:17.931Z,70.40
2018-11-27T14:01:46.352Z,70.30
2018-11-27T14:04:13.280Z,71.10
2018-11-27T14:06:40.890Z,71.50
2018-11-27T14:09:09.962Z,71.30
2018-11-27T14:11:37.672Z,69.90
2018-11-27T14:14:06.222Z,71.50
2018-11-27T14:16:34.411Z,71.70
2018-11-27T14:19:02.097Z,71.50
2018-11-27T14:21:29.751Z,71.50
2018-11-27T14:23:57.407Z,71.70
2018-11-27T14:26:27.235Z,71.80
2018-11-27T14:28:54.942Z,71.60
2018-11-27T14:31:22.592Z,71.70
2018-11-27T14:33:50.214Z,72.30
2018-11-27T14:36:17.918Z,72.20
2018-11-27T14:38:48.699Z,72.20
2018-11-27T14:41:16.420Z,72.30
2018-11-27T14:43:44.044Z,72.30
2018-11-27T14:46:11.641Z,71.70
2018-11-27T14:48:39.220Z,70.40
2018-11-27T14:51:06.939Z,71.40
2018-11-27T14:53:34.567Z,71.70
2018-11-27T14:56:02.146Z,71.10
2018-11-27T14:58:29.810Z,71.80
2018-11-27T15:00:57.442Z,71.80
2018-11-27T15:03:25.104Z,71.70
2018-11-27T15:05:52.715Z,71.80
2018-11-27T15:08:20.340Z,72.10
2018-11-27T15:10:48.041Z,72.60
2018-11-27T15:13:15.736Z,72.80
2018-11-27T15:15:43.373Z,72.80
2018-11-27T15:18:11.050Z,72.80
2018-11-27T15:20:38.751Z,72.90
2018-11-27T15:23:06.452Z,72.90
2018-11-27T15:25:34.094Z,73.00
2018-11-27T15:28:02.043Z,73.00
2018-11-27T15:30:32.805Z,73.40
2018-11-27T15:33:00.495Z,73.50
2018-11-27T15:35:28.175Z,73.30
2018-11-27T15:37:55.796Z,73.30
2018-11-27T15:40:24.749Z,73.20
2018-11-27T15:42:52.705Z,73.20
2018-11-27T15:45:21.576Z,73.30
2018-11-27T15:47:49.506Z,73.00
2018-11-27T15:50:17.193Z,73.00
2018-11-27T15:52:45.322Z,73.10
2018-11-27T15:55:14.258Z,73.30
2018-11-27T15:57:41.981Z,73.30
2018-11-27T16:00:17.602Z,73.50
2018-11-27T16:02:45.518Z,73.50
2018-11-27T16:05:13.746Z,73.30
2018-11-27T16:07:41.510Z,73.40
2018-11-27T16:10:12.190Z,73.60
2018-11-27T16:12:39.901Z,73.50
2018-11-27T16:15:10.002Z,73.50
2018-11-27T16:17:37.610Z,73.50
2018-11-27T16:20:07.255Z,73.30
2018-11-27T16:22:34.873Z,73.40
2018-11-27T16:25:02.575Z,73.60
2018-11-27T16:27:30.175Z,73.80
2018-11-27T16:29:57.775Z,73.70
2018-11-27T16:32:25.348Z,73.70
2018-11-27T16:34:53.031Z,73.70
2018-11-27T16:37:20.643Z,73.60
2018-11-27T16:39:48.281Z,73.50
2018-11-27T16:42:15.858Z,73.50
2018-11-27T16:44:43.503Z,73.60
2018-11-27T16:47:11.272Z,73.60
2018-11-27T16:49:38.972Z,73.50
2018-11-27T16:52:06.681Z,73.50
2018-11-27T16:54:34.411Z,73.70
2018-11-27T16:57:02.150Z,73.70
2018-11-27T16:59:29.863Z,73.50
2018-11-27T17:01:57.534Z,73.50
2018-11-27T17:04:25.230Z,73.50
2018-11-27T17:06:52.936Z,73.50
2018-11-27T17:09:20.571Z,73.60
2018-11-27T17:11:48.233Z,73.40
2018-11-27T17:14:15.821Z,73.50
2018-11-27T17:16:43.496Z,73.20
2018-11-27T17:19:11.096Z,73.30
2018-11-27T17:21:38.763Z,73.10
2018-11-27T17:24:06.486Z,73.10
2018-11-27T17:26:34.184Z,73.10
2018-11-27T17:29:01.951Z,72.90
2018-11-27T17:31:29.847Z,73.10
2018-11-27T17:34:02.349Z,72.70
2018-11-27T17:36:30.135Z,72.80
2018-11-27T17:38:57.944Z,73.00
2018-11-27T17:41:25.618Z,73.00
2018-11-27T17:43:53.627Z,73.10
2018-11-27T17:46:21.141Z,73.00
2018-11-27T17:48:48.810Z,73.00
2018-11-27T17:51:16.548Z,72.70
2018-11-27T17:53:44.168Z,72.80
2018-11-27T17:56:11.814Z,72.60
2018-11-27T17:58:39.410Z,72.40
2018-11-27T18:01:07.073Z,73.00
2018-11-27T18:03:34.724Z,73.10
2018-11-27T18:06:02.458Z,73.00
2018-11-27T18:08:30.799Z,73.20
2018-11-27T18:10:58.423Z,73.10
2018-11-27T18:13:26.063Z,73.00
2018-11-27T18:15:53.798Z,73.10
2018-11-27T18:18:21.524Z,73.30
2018-11-27T18:20:49.283Z,73.00
2018-11-27T18:23:17.056Z,73.30
2018-11-27T18:25:44.966Z,73.50
2018-11-27T18:28:12.679Z,73.40
2018-11-27T18:30:40.337Z,73.60
2018-11-27T18:33:08.194Z,73.60
2018-11-27T18:35:37.068Z,73.70
2018-11-27T18:38:05.525Z,73.70
2018-11-27T18:40:33.221Z,73.50
2018-11-27T18:43:01.019Z,73.60
2018-11-27T18:45:29.922Z,73.60
2018-11-27T18:47:58.196Z,73.40
2018-11-27T18:50:28.102Z,73.40
2018-11-27T18:52:56.142Z,73.40
2018-11-27T18:55:24.239Z,73.70
2018-11-27T18:57:52.131Z,73.60
2018-11-27T19:00:24.828Z,73.80
2018-11-27T19:02:52.749Z,73.90
2018-11-27T19:05:20.605Z,73.70
2018-11-27T19:07:48.457Z,73.70
2018-11-27T19:10:22.816Z,73.70
2018-11-27T19:12:50.597Z,73.70
2018-11-27T19:15:23.780Z,73.80
2018-11-27T19:17:54.055Z,73.90
2018-11-27T19:20:21.871Z,73.60
2018-11-27T19:22:49.604Z,73.70
2018-11-27T19:25:17.356Z,74.20
2018-11-27T19:27:45.125Z,73.80
2018-11-27T19:30:16.195Z,74.10
2018-11-27T19:32:42.184Z,74.00
2018-11-27T19:35:11.311Z,73.90
2018-11-27T19:37:39.066Z,73.80
2018-11-27T19:40:10.010Z,73.90
2018-11-27T19:42:37.669Z,73.80
2018-11-27T19:45:08.217Z,74.10
2018-11-27T19:47:36.332Z,74.00
2018-11-27T19:50:06.124Z,73.90
2018-11-27T19:52:33.864Z,73.90
2018-11-27T19:55:02.055Z,74.10
2018-11-27T19:57:29.924Z,74.10
2018-11-27T19:59:57.862Z,74.10
2018-11-27T20:02:25.896Z,74.00
2018-11-27T20:04:53.756Z,74.10
2018-11-27T20:07:21.763Z,74.20
2018-11-27T20:09:49.728Z,74.30
2018-11-27T20:12:18.044Z,74.30
2018-11-27T20:14:46.468Z,74.10
2018-11-27T20:17:14.214Z,74.00
2018-11-27T20:19:42.035Z,73.90
2018-11-27T20:22:09.758Z,74.10
2018-11-27T20:24:37.568Z,74.00
2018-11-27T20:27:05.556Z,74.30
2018-11-27T20:29:33.336Z,74.30
2018-11-27T20:32:01.166Z,74.10
2018-11-27T20:34:28.920Z,74.20
2018-11-27T20:36:56.666Z,74.30
2018-11-27T20:39:24.415Z,74.20
2018-11-27T20:41:52.301Z,74.40
2018-11-27T20:44:20.095Z,74.20
2018-11-27T20:46:47.809Z,74.20
2018-11-27T20:49:15.979Z,74.20
2018-11-27T20:51:43.919Z,74.10
2018-11-27T20:54:12.193Z,74.10
2018-11-27T20:56:41.887Z,74.00
2018-11-27T20:59:09.081Z,74.00
2018-11-27T21:01:36.932Z,74.30
2018-11-27T21:04:04.830Z,74.10
2018-11-27T21:06:32.532Z,74.20
2018-11-27T21:09:00.232Z,74.30
2018-11-27T21:11:28.023Z,74.20
2018-11-27T21:13:55.723Z,74.10
2018-11-27T21:16:23.413Z,74.10
2018-11-27T21:18:51.275Z,74.00
2018-11-27T21:21:18.930Z,73.90
2018-11-27T21:23:46.643Z,73.90
2018-11-27T21:26:15.068Z,73.90
2018-11-27T21:28:49.260Z,74.00
2018-11-27T21:31:16.882Z,73.90
2018-11-27T21:33:44.519Z,74.00
2018-11-27T21:36:12.147Z,74.10
2018-11-27T21:38:39.867Z,74.10
2018-11-27T21:41:07.614Z,74.20
2018-11-27T21:43:35.347Z,74.20
2018-11-27T21:46:02.973Z,74.10
2018-11-27T21:48:30.685Z,74.10
2018-11-27T21:51:00.209Z,74.30
2018-11-27T21:53:28.179Z,74.20
2018-11-27T21:55:55.838Z,74.10
2018-11-27T21:58:23.502Z,74.00
2018-11-27T22:00:51.290Z,74.00
2018-11-27T22:03:18.961Z,73.90
2018-11-27T22:05:46.582Z,73.90
2018-11-27T22:08:14.254Z,73.90
2018-11-27T22:10:41.894Z,73.90
2018-11-27T22:13:11.876Z,73.90
2018-11-27T22:15:40.477Z,73.90
2018-11-27T22:18:08.989Z,73.90
2018-11-27T22:20:36.614Z,73.60
2018-11-27T22:23:04.559Z,73.70
2018-11-27T22:25:32.221Z,73.50
2018-11-27T22:27:59.855Z,73.80
2018-11-27T22:30:27.470Z,73.80
2018-11-27T22:32:55.332Z,73.80
2018-11-27T22:35:22.964Z,73.70
2018-11-27T22:37:50.619Z,73.70
2018-11-27T22:40:21.604Z,74.00
2018-11-27T22:42:49.803Z,73.90
2018-11-27T22:45:25.691Z,74.00
2018-11-27T22:47:53.293Z,74.00
2018-11-27T22:50:20.949Z,74.10
2018-11-27T22:52:48.566Z,74.00
2018-11-27T22:55:16.143Z,73.90
2018-11-27T22:57:43.658Z,73.90
2018-11-27T23:00:22.699Z,73.90
2018-11-27T23:02:50.216Z,73.70
2018-11-27T23:05:18.671Z,74.00
2018-11-27T23:07:46.329Z,74.10
2018-11-27T23:10:14.228Z,74.00
2018-11-27T23:12:41.777Z,73.90
2018-11-27T23:15:10.936Z,73.90
2018-11-27T23:17:38.563Z,74.10
2018-11-27T23:20:11.637Z,74.30
2018-11-27T23:22:39.241Z,74.30
2018-11-27T23:25:08.612Z,74.30
2018-11-27T23:27:36.177Z,74.10
2018-11-27T23:30:08.391Z,73.50
2018-11-27T23:32:35.891Z,73.60
2018-11-27T23:35:03.757Z,73.60
2018-11-27T23:37:31.271Z,73.70
2018-11-27T23:39:58.827Z,73.60
2018-11-27T23:42:26.362Z,73.70
2018-11-27T23:44:53.943Z,73.80
2018-11-27T23:47:21.509Z,73.70
2018-11-27T23:49:49.045Z,73.90
2018-11-27T23:52:16.603Z,73.90
2018-11-27T23:54:44.163Z,73.80
2018-11-27T23:57:11.695Z,73.90
2018-11-27T23:59:39.255Z,73.70
